createdAt,value
2017-07-28T00:00:36.108Z,99.99
2017-07-28T00:01:48.384Z,99.99
2017-07-28T00:03:00.922Z,99.99
2017-07-28T00:04:13.511Z,99.99
2017-07-28T00:05:26.038Z,99.99
2017-07-28T00:06:38.872Z,99.99
2017-07-28T00:07:51.476Z,99.99
2017-07-28T00:09:03.734Z,99.99
2017-07-28T00:10:16.022Z,99.99
2017-07-28T00:11:28.299Z,99.99
2017-07-28T00:12:40.859Z,99.99
2017-07-28T00:13:53.500Z,99.99
2017-07-28T00:15:06.099Z,99.99
2017-07-28T00:16:18.387Z,99.99
2017-07-28T00:17:31.011Z,99.99
2017-07-28T00:18:43.275Z,99.99
2017-07-28T00:19:55.897Z,99.99
2017-07-28T00:21:07.864Z,99.99
2017-07-28T00:22:20.443Z,99.99
2017-07-28T00:23:33.040Z,99.99
2017-07-28T00:24:45.647Z,99.99
2017-07-28T00:25:57.968Z,99.99
2017-07-28T00:27:10.297Z,99.99
2017-07-28T00:28:22.575Z,99.99
2017-07-28T00:29:34.838Z,99.99
2017-07-28T00:30:47.396Z,99.99
2017-07-28T00:31:59.730Z,99.99
2017-07-28T00:33:12.027Z,99.99
2017-07-28T00:34:24.305Z,99.99
2017-07-28T00:35:36.886Z,99.99
2017-07-28T00:36:49.402Z,99.99
2017-07-28T00:38:02.013Z,99.99
2017-07-28T00:39:14.283Z,99.99
2017-07-28T00:40:26.582Z,99.99
2017-07-28T00:41:38.876Z,99.99
2017-07-28T00:42:51.496Z,99.99
2017-07-28T00:44:04.094Z,99.99
2017-07-28T00:45:16.346Z,99.99
2017-07-28T00:46:28.923Z,99.99
2017-07-28T00:47:40.928Z,99.99
2017-07-28T00:48:53.528Z,99.99
2017-07-28T00:50:06.155Z,99.99
2017-07-28T00:51:18.391Z,99.99
2017-07-28T00:52:30.979Z,99.99
2017-07-28T00:53:43.293Z,99.99
2017-07-28T00:54:55.940Z,99.99
2017-07-28T00:56:07.974Z,99.99
2017-07-28T00:57:20.524Z,99.99
2017-07-28T00:58:32.833Z,99.99
2017-07-28T00:59:45.090Z,99.99
2017-07-28T01:00:57.950Z,99.99
2017-07-28T01:02:10.530Z,99.99
2017-07-28T01:03:22.805Z,99.99
2017-07-28T01:04:35.048Z,99.99
2017-07-28T01:05:47.368Z,99.99
2017-07-28T01:06:59.637Z,99.99
2017-07-28T01:08:11.595Z,99.99
2017-07-28T01:09:23.932Z,99.99
2017-07-28T01:10:36.186Z,99.99
2017-07-28T01:11:48.505Z,99.99
2017-07-28T01:13:00.864Z,99.99
2017-07-28T01:14:13.438Z,99.99
2017-07-28T01:15:26.011Z,99.99
2017-07-28T01:16:38.282Z,99.99
2017-07-28T01:17:50.836Z,99.99
2017-07-28T01:19:03.454Z,99.99
2017-07-28T01:20:15.719Z,99.99
2017-07-28T01:21:27.737Z,99.99
2017-07-28T01:22:40.576Z,99.99
2017-07-28T01:23:52.862Z,99.99
2017-07-28T01:25:04.881Z,99.99
2017-07-28T01:26:17.421Z,99.99
2017-07-28T01:27:29.768Z,99.99
2017-07-28T01:28:42.067Z,99.99
2017-07-28T01:29:54.677Z,99.99
2017-07-28T01:31:07.008Z,99.99
2017-07-28T01:32:19.582Z,99.99
2017-07-28T01:33:31.839Z,99.99
2017-07-28T01:34:44.409Z,99.99
2017-07-28T01:35:56.724Z,99.99
2017-07-28T01:37:08.663Z,99.99
2017-07-28T01:38:21.308Z,99.99
2017-07-28T01:39:33.935Z,99.99
2017-07-28T01:40:45.914Z,99.99
2017-07-28T01:41:58.161Z,99.99
2017-07-28T01:43:10.475Z,99.99
2017-07-28T01:44:23.078Z,99.99
2017-07-28T01:45:35.574Z,99.99
2017-07-28T01:46:48.182Z,99.99
2017-07-28T01:48:00.448Z,99.99
2017-07-28T01:49:12.405Z,99.99
2017-07-28T01:50:24.994Z,99.99
2017-07-28T01:51:37.293Z,99.99
2017-07-28T01:52:49.890Z,99.99
2017-07-28T01:54:02.460Z,99.99
2017-07-28T01:55:14.749Z,99.99
2017-07-28T01:56:27.380Z,99.99
2017-07-28T01:57:39.965Z,99.99
2017-07-28T01:58:52.519Z,99.99
2017-07-28T02:00:05.100Z,99.99
2017-07-28T02:01:17.052Z,99.99
2017-07-28T02:02:29.298Z,99.99
2017-07-28T02:03:41.583Z,99.99
2017-07-28T02:04:54.146Z,99.99
2017-07-28T02:06:06.465Z,99.99
2017-07-28T02:07:18.725Z,99.99
2017-07-28T02:08:30.721Z,99.99
2017-07-28T02:09:43.278Z,99.99
2017-07-28T02:10:55.871Z,99.99
2017-07-28T02:12:08.195Z,99.99
2017-07-28T02:13:20.789Z,99.99
2017-07-28T02:14:33.394Z,99.99
2017-07-28T02:15:46.013Z,99.99
2017-07-28T02:16:58.599Z,99.99
2017-07-28T02:18:11.149Z,99.99
2017-07-28T02:19:23.740Z,99.99
2017-07-28T02:20:35.993Z,99.99
2017-07-28T02:21:47.992Z,99.99
2017-07-28T02:23:00.607Z,99.99
2017-07-28T02:24:13.194Z,99.99
2017-07-28T02:25:25.798Z,99.99
2017-07-28T02:26:38.377Z,99.99
2017-07-28T02:27:50.955Z,99.99
2017-07-28T02:29:03.520Z,99.99
2017-07-28T02:30:16.116Z,99.99
2017-07-28T02:31:28.483Z,99.99
2017-07-28T02:32:40.754Z,99.99
2017-07-28T02:33:53.326Z,99.99
2017-07-28T02:35:05.639Z,99.99
2017-07-28T02:36:18.238Z,99.99
2017-07-28T02:37:30.909Z,99.99
2017-07-28T02:38:43.491Z,99.99
2017-07-28T02:39:56.084Z,99.99
2017-07-28T02:41:08.646Z,99.99
2017-07-28T02:42:21.232Z,99.99
2017-07-28T02:43:33.587Z,99.99
2017-07-28T02:44:46.166Z,99.99
2017-07-28T02:45:58.451Z,99.99
2017-07-28T02:47:11.059Z,99.99
2017-07-28T02:48:23.694Z,99.99
2017-07-28T02:49:36.594Z,99.99
2017-07-28T02:50:49.211Z,99.99
2017-07-28T02:52:01.774Z,99.99
2017-07-28T02:53:14.051Z,99.99
2017-07-28T02:54:26.648Z,99.99
2017-07-28T02:55:39.211Z,99.99
2017-07-28T02:56:51.201Z,99.99
2017-07-28T02:58:03.813Z,99.99
2017-07-28T02:59:16.336Z,99.99
2017-07-28T03:00:29.180Z,99.99
2017-07-28T03:01:41.816Z,99.99
2017-07-28T03:02:54.369Z,99.99
2017-07-28T03:04:06.943Z,99.99
2017-07-28T03:05:19.236Z,99.99
2017-07-28T03:06:31.550Z,99.99
2017-07-28T03:07:44.131Z,99.99
2017-07-28T03:08:56.367Z,99.99
2017-07-28T03:10:08.637Z,99.99
2017-07-28T03:11:20.634Z,99.99
2017-07-28T03:12:32.872Z,99.99
2017-07-28T03:13:45.489Z,99.99
2017-07-28T03:14:57.807Z,99.99
2017-07-28T03:16:10.132Z,99.99
2017-07-28T03:17:22.682Z,99.99
2017-07-28T03:18:35.296Z,99.99
2017-07-28T03:19:47.890Z,99.99
2017-07-28T03:21:00.484Z,99.99
2017-07-28T03:22:13.037Z,99.99
2017-07-28T03:23:25.309Z,99.99
2017-07-28T03:24:37.613Z,99.99
2017-07-28T03:25:49.955Z,99.99
2017-07-28T03:27:02.589Z,99.99
2017-07-28T03:28:15.184Z,99.99
2017-07-28T03:29:27.766Z,99.99
2017-07-28T03:30:39.732Z,99.99
2017-07-28T03:31:52.025Z,99.99
2017-07-28T03:33:04.854Z,99.99
2017-07-28T03:34:16.814Z,99.99
2017-07-28T03:35:29.078Z,99.99
2017-07-28T03:36:41.648Z,99.99
2017-07-28T03:37:54.216Z,99.99
2017-07-28T03:39:06.522Z,99.99
2017-07-28T03:40:18.817Z,99.99
2017-07-28T03:41:31.390Z,99.99
2017-07-28T03:42:43.684Z,99.99
2017-07-28T03:43:56.305Z,99.99
2017-07-28T03:45:08.952Z,99.99
2017-07-28T03:46:21.524Z,99.99
2017-07-28T03:47:34.121Z,99.99
2017-07-28T03:48:46.398Z,99.99
2017-07-28T03:49:58.736Z,99.99
2017-07-28T03:51:11.280Z,99.99
2017-07-28T03:52:23.594Z,99.99
2017-07-28T03:53:36.187Z,99.99
2017-07-28T03:54:48.775Z,99.99
2017-07-28T03:56:01.371Z,99.99
2017-07-28T03:57:13.937Z,99.99
2017-07-28T03:58:26.557Z,99.99
2017-07-28T03:59:39.167Z,99.99
2017-07-28T04:00:51.791Z,99.99
2017-07-28T04:02:04.362Z,99.99
2017-07-28T04:03:16.975Z,99.99
2017-07-28T04:04:29.238Z,99.99
2017-07-28T04:05:41.837Z,99.99
2017-07-28T04:06:54.196Z,99.99
2017-07-28T04:08:06.800Z,99.99
2017-07-28T04:09:19.071Z,99.99
2017-07-28T04:10:31.618Z,99.99
2017-07-28T04:11:44.197Z,99.99
2017-07-28T04:12:56.475Z,99.99
2017-07-28T04:14:08.734Z,99.99
2017-07-28T04:15:21.324Z,99.99
2017-07-28T04:16:33.932Z,99.99
2017-07-28T04:17:46.216Z,99.99
2017-07-28T04:18:58.762Z,99.99
2017-07-28T04:20:11.302Z,99.99
2017-07-28T04:21:23.803Z,99.99
2017-07-28T04:22:36.377Z,99.99
2017-07-28T04:23:48.946Z,99.99
2017-07-28T04:25:01.253Z,99.99
2017-07-28T04:26:13.838Z,99.99
2017-07-28T04:27:26.100Z,99.99
2017-07-28T04:28:38.668Z,99.99
2017-07-28T04:29:51.261Z,99.99
2017-07-28T04:31:03.900Z,99.99
2017-07-28T04:32:16.503Z,99.99
2017-07-28T04:33:29.078Z,99.99
2017-07-28T04:34:41.352Z,99.99
2017-07-28T04:35:53.907Z,99.99
2017-07-28T04:37:06.487Z,99.99
2017-07-28T04:38:19.294Z,99.99
2017-07-28T04:39:31.593Z,99.99
2017-07-28T04:40:43.864Z,99.99
2017-07-28T04:41:56.464Z,99.99
2017-07-28T04:43:09.035Z,99.99
2017-07-28T04:44:21.608Z,99.99
2017-07-28T04:45:34.275Z,99.99
2017-07-28T04:46:46.867Z,99.99
2017-07-28T04:47:59.488Z,99.99
2017-07-28T04:49:11.435Z,99.99
2017-07-28T04:50:23.758Z,99.99
2017-07-28T04:51:36.011Z,99.99
2017-07-28T04:52:48.015Z,99.99
2017-07-28T04:54:00.342Z,99.99
2017-07-28T04:55:11.994Z,99.99
2017-07-28T04:56:23.988Z,99.99
2017-07-28T04:57:36.631Z,99.99
2017-07-28T04:58:48.878Z,99.99
2017-07-28T05:00:01.473Z,99.99
2017-07-28T05:01:13.424Z,99.99
2017-07-28T05:02:26.041Z,99.99
2017-07-28T05:03:38.663Z,99.99
2017-07-28T05:04:50.920Z,99.99
2017-07-28T05:06:03.546Z,99.99
2017-07-28T05:07:16.192Z,99.99
2017-07-28T05:08:28.770Z,99.99
2017-07-28T05:09:41.363Z,99.99
2017-07-28T05:10:54.247Z,99.99
2017-07-28T05:12:06.932Z,99.99
2017-07-28T05:13:19.196Z,99.99
2017-07-28T05:14:31.749Z,99.99
2017-07-28T05:15:44.394Z,99.99
2017-07-28T05:16:56.667Z,99.99
2017-07-28T05:18:08.954Z,99.99
2017-07-28T05:19:21.539Z,99.99
2017-07-28T05:20:34.085Z,99.99
2017-07-28T05:21:46.586Z,99.99
2017-07-28T05:22:58.907Z,99.99
2017-07-28T05:24:11.491Z,99.99
2017-07-28T05:25:23.469Z,99.99
2017-07-28T05:26:35.764Z,99.99
2017-07-28T05:27:48.304Z,99.99
2017-07-28T05:29:00.876Z,99.99
2017-07-28T05:30:13.438Z,99.99
2017-07-28T05:31:26.070Z,99.99
2017-07-28T05:32:38.715Z,99.99
2017-07-28T05:33:51.326Z,99.99
2017-07-28T05:35:03.997Z,99.99
2017-07-28T05:36:16.024Z,99.99
2017-07-28T05:37:28.631Z,99.99
2017-07-28T05:38:41.274Z,99.99
2017-07-28T05:39:53.841Z,99.99
2017-07-28T05:41:06.393Z,99.99
2017-07-28T05:42:19.030Z,99.99
2017-07-28T05:43:31.526Z,99.99
2017-07-28T05:44:44.124Z,99.99
2017-07-28T05:45:56.736Z,99.99
2017-07-28T05:47:09.000Z,99.99
2017-07-28T05:48:21.602Z,99.99
2017-07-28T05:49:34.211Z,99.99
2017-07-28T05:50:46.477Z,99.99
2017-07-28T05:51:59.026Z,99.99
2017-07-28T05:53:11.672Z,99.99
2017-07-28T05:54:24.256Z,99.99
2017-07-28T05:55:36.869Z,99.99
2017-07-28T05:56:49.469Z,99.99
2017-07-28T05:58:01.457Z,99.99
2017-07-28T05:59:13.475Z,99.99
2017-07-28T06:00:26.049Z,99.99
2017-07-28T06:01:38.038Z,99.99
2017-07-28T06:02:50.611Z,99.99
2017-07-28T06:04:03.242Z,99.99
2017-07-28T06:05:15.821Z,99.99
2017-07-28T06:06:28.117Z,99.99
2017-07-28T06:07:40.671Z,99.99
2017-07-28T06:08:53.261Z,99.99
2017-07-28T06:10:05.562Z,99.99
2017-07-28T06:11:18.169Z,99.99
2017-07-28T06:12:30.765Z,99.99
2017-07-28T06:13:43.073Z,99.99
2017-07-28T06:14:55.336Z,99.99
2017-07-28T06:16:07.644Z,99.99
2017-07-28T06:17:20.204Z,99.99
2017-07-28T06:18:32.445Z,99.99
2017-07-28T06:19:45.021Z,99.99
2017-07-28T06:20:57.378Z,99.99
2017-07-28T06:22:09.339Z,99.99
2017-07-28T06:23:21.009Z,99.99
2017-07-28T06:24:33.567Z,99.99
2017-07-28T06:25:46.236Z,99.99
2017-07-28T06:26:58.796Z,99.99
2017-07-28T06:28:11.343Z,99.99
2017-07-28T06:29:23.271Z,99.99
2017-07-28T06:30:35.524Z,99.99
2017-07-28T06:31:47.854Z,99.99
2017-07-28T06:32:59.800Z,99.99
2017-07-28T06:34:12.422Z,99.99
2017-07-28T06:35:24.908Z,99.99
2017-07-28T06:36:36.889Z,99.99
2017-07-28T06:37:49.426Z,99.99
2017-07-28T06:39:01.676Z,99.99
2017-07-28T06:40:14.359Z,99.99
2017-07-28T06:41:26.659Z,99.99
2017-07-28T06:42:39.279Z,99.99
2017-07-28T06:43:51.848Z,99.99
2017-07-28T06:45:04.441Z,99.99
2017-07-28T06:46:16.763Z,99.99
2017-07-28T06:47:29.351Z,99.99
2017-07-28T06:48:41.611Z,99.99
2017-07-28T06:49:54.194Z,99.99
2017-07-28T06:51:06.725Z,99.99
2017-07-28T06:52:19.310Z,99.99
2017-07-28T06:53:31.614Z,99.99
2017-07-28T06:54:44.203Z,99.99
2017-07-28T06:55:56.813Z,99.99
2017-07-28T06:57:08.815Z,99.99
2017-07-28T06:58:21.424Z,99.99
2017-07-28T06:59:34.287Z,99.99
2017-07-28T07:00:46.518Z,99.99
2017-07-28T07:01:59.137Z,99.99
2017-07-28T07:03:11.148Z,99.99
2017-07-28T07:04:23.467Z,99.99
2017-07-28T07:05:35.741Z,99.99
2017-07-28T07:06:48.048Z,99.99
2017-07-28T07:08:00.018Z,99.99
2017-07-28T07:09:12.641Z,99.99
2017-07-28T07:10:25.283Z,99.99
2017-07-28T07:11:37.930Z,99.99
2017-07-28T07:12:50.297Z,99.99
2017-07-28T07:14:02.348Z,99.99
2017-07-28T07:15:14.667Z,99.11
2017-07-28T07:16:27.254Z,99.41
2017-07-28T07:17:39.832Z,99.99
2017-07-28T07:18:52.446Z,96.8
2017-07-28T07:20:04.104Z,97.77
2017-07-28T07:21:16.681Z,99.11
2017-07-28T07:22:29.245Z,96.65
2017-07-28T07:23:41.529Z,98.58
2017-07-28T07:24:54.150Z,96.94
2017-07-28T07:26:06.704Z,97.52
2017-07-28T07:27:19.342Z,99.99
2017-07-28T07:28:31.957Z,98.2
2017-07-28T07:29:44.548Z,96.89
2017-07-28T07:30:57.155Z,96.51
2017-07-28T07:32:09.762Z,95.64
2017-07-28T07:33:22.083Z,97.96
2017-07-28T07:34:34.330Z,98.54
2017-07-28T07:35:46.649Z,95.1
2017-07-28T07:36:59.219Z,94.43
2017-07-28T07:38:11.836Z,96.94
2017-07-28T07:39:24.152Z,92.78
2017-07-28T07:40:36.730Z,92.97
2017-07-28T07:41:49.029Z,94.28
2017-07-28T07:43:01.101Z,94.28
2017-07-28T07:44:13.092Z,91.76
2017-07-28T07:45:25.426Z,91.86
2017-07-28T07:46:38.037Z,90.5
2017-07-28T07:47:50.373Z,95.05
2017-07-28T07:49:02.906Z,94.86
2017-07-28T07:50:15.196Z,95.25
2017-07-28T07:51:27.479Z,94.13
2017-07-28T07:52:39.456Z,95.2
2017-07-28T07:53:52.014Z,92.19
2017-07-28T07:55:04.667Z,94.81
2017-07-28T07:56:17.277Z,91.52
2017-07-28T07:57:29.875Z,89.72
2017-07-28T07:58:42.150Z,87.78
2017-07-28T07:59:54.454Z,89.09
2017-07-28T08:01:06.726Z,89.19
2017-07-28T08:02:19.392Z,88.51
2017-07-28T08:03:31.965Z,86.58
2017-07-28T08:04:43.982Z,89.87
2017-07-28T08:05:56.636Z,90.16
2017-07-28T08:07:09.243Z,89.09
2017-07-28T08:08:21.837Z,88.51
2017-07-28T08:09:34.095Z,86.19
2017-07-28T08:10:46.719Z,89
2017-07-28T08:11:59.059Z,90.45
2017-07-28T08:13:11.698Z,90.16
2017-07-28T08:14:24.339Z,87.26
2017-07-28T08:15:36.944Z,89.33
2017-07-28T08:16:49.557Z,89.14
2017-07-28T08:18:02.203Z,88.07
2017-07-28T08:19:14.524Z,87.1
2017-07-28T08:20:27.126Z,89.82
2017-07-28T08:21:39.122Z,88.85
2017-07-28T08:22:51.410Z,89.82
2017-07-28T08:24:03.712Z,88.85
2017-07-28T08:25:16.271Z,85.27
2017-07-28T08:26:28.900Z,85.5
2017-07-28T08:27:40.838Z,84.1
2017-07-28T08:28:53.122Z,86.43
2017-07-28T08:30:05.404Z,87.63
2017-07-28T08:31:17.461Z,88.65
2017-07-28T08:32:29.780Z,88.02
2017-07-28T08:33:42.084Z,87.63
2017-07-28T08:34:54.445Z,86.33
2017-07-28T08:36:07.045Z,87.3
2017-07-28T08:37:19.295Z,86.72
2017-07-28T08:38:31.970Z,88.61
2017-07-28T08:39:44.608Z,90.84
2017-07-28T08:40:56.950Z,89.44
2017-07-28T08:42:09.570Z,87.89
2017-07-28T08:43:21.884Z,90.12
2017-07-28T08:44:34.141Z,89.01
2017-07-28T08:45:45.835Z,90.26
2017-07-28T08:46:58.466Z,90.17
2017-07-28T08:48:10.802Z,91.14
2017-07-28T08:49:22.814Z,92.1
2017-07-28T08:50:35.410Z,88.91
2017-07-28T08:51:47.988Z,87.95
2017-07-28T08:53:00.638Z,88.04
2017-07-28T08:54:13.304Z,87.17
2017-07-28T08:55:25.952Z,86.16
2017-07-28T08:56:38.240Z,87.9
2017-07-28T08:57:50.825Z,90.47
2017-07-28T08:59:03.389Z,89.75
2017-07-28T09:00:15.678Z,90.52
2017-07-28T09:01:28.362Z,89.26
2017-07-28T09:02:40.995Z,86.85
2017-07-28T09:03:53.247Z,88.54
2017-07-28T09:05:05.586Z,90.19
2017-07-28T09:06:17.226Z,90.77
2017-07-28T09:07:29.840Z,87.38
2017-07-28T09:08:42.126Z,86.17
2017-07-28T09:09:54.709Z,87.77
2017-07-28T09:11:07.253Z,89.61
2017-07-28T09:12:19.893Z,87.96
2017-07-28T09:13:32.177Z,91.05
2017-07-28T09:14:44.753Z,89.89
2017-07-28T09:15:57.032Z,90.67
2017-07-28T09:17:09.621Z,91.19
2017-07-28T09:18:22.172Z,91.77
2017-07-28T09:19:34.775Z,91.87
2017-07-28T09:20:47.371Z,92.55
2017-07-28T09:21:59.362Z,90.13
2017-07-28T09:23:11.925Z,91.49
2017-07-28T09:24:23.927Z,92.07
2017-07-28T09:25:35.910Z,91.19
2017-07-28T09:26:48.249Z,93.03
2017-07-28T09:28:00.214Z,92.65
2017-07-28T09:29:12.822Z,93.9
2017-07-28T09:30:25.475Z,95.06
2017-07-28T09:31:37.765Z,91.14
2017-07-28T09:32:50.157Z,90.47
2017-07-28T09:34:02.181Z,90.56
2017-07-28T09:35:14.485Z,88.48
2017-07-28T09:36:26.193Z,88.87
2017-07-28T09:37:38.801Z,89.93
2017-07-28T09:38:51.362Z,87.81
2017-07-28T09:40:03.901Z,88.67
2017-07-28T09:41:16.216Z,91.96
2017-07-28T09:42:28.792Z,93.6
2017-07-28T09:43:41.087Z,91.96
2017-07-28T09:44:53.101Z,88.39
2017-07-28T09:46:05.421Z,88.39
2017-07-28T09:47:17.368Z,88.82
2017-07-28T09:48:29.933Z,89.5
2017-07-28T09:49:42.229Z,87.9
2017-07-28T09:50:54.556Z,88.34
2017-07-28T09:52:07.137Z,88.24
2017-07-28T09:53:19.454Z,89.64
2017-07-28T09:54:32.043Z,87.81
2017-07-28T09:55:44.639Z,86.45
2017-07-28T09:56:57.250Z,88.09
2017-07-28T09:58:09.881Z,88.57
2017-07-28T09:59:22.477Z,90.75
2017-07-28T10:00:34.709Z,88.71
2017-07-28T10:01:47.269Z,87.75
2017-07-28T10:02:59.274Z,86.82
2017-07-28T10:04:11.279Z,85.61
2017-07-28T10:05:23.639Z,84.45
2017-07-28T10:06:35.909Z,84.35
2017-07-28T10:07:48.479Z,85.36
2017-07-28T10:09:00.735Z,85.46
2017-07-28T10:10:12.734Z,82.75
2017-07-28T10:11:25.394Z,82.94
2017-07-28T10:12:37.968Z,81.04
2017-07-28T10:13:50.274Z,80.75
2017-07-28T10:15:02.592Z,80.6
2017-07-28T10:16:15.259Z,80.69
2017-07-28T10:17:27.841Z,80.44
2017-07-28T10:18:40.082Z,78.34
2017-07-28T10:19:52.383Z,76.01
2017-07-28T10:21:04.659Z,75.27
2017-07-28T10:22:17.250Z,72.2
2017-07-28T10:23:29.552Z,72.2
2017-07-28T10:24:41.839Z,73.75
2017-07-28T10:25:54.467Z,72.04
2017-07-28T10:27:06.759Z,72.37
2017-07-28T10:28:19.062Z,70.13
2017-07-28T10:29:31.640Z,71.72
2017-07-28T10:30:43.921Z,70.46
2017-07-28T10:31:56.519Z,69.62
2017-07-28T10:33:09.145Z,70.2
2017-07-28T10:34:21.473Z,69.78
2017-07-28T10:35:33.437Z,68.23
2017-07-28T10:36:46.008Z,69.23
2017-07-28T10:37:58.372Z,66.6
2017-07-28T10:39:10.093Z,66.56
2017-07-28T10:40:22.372Z,64.91
2017-07-28T10:41:34.716Z,66.66
2017-07-28T10:42:47.443Z,65.2
2017-07-28T10:44:00.076Z,67.38
2017-07-28T10:45:12.356Z,65.78
2017-07-28T10:46:24.931Z,64.36
2017-07-28T10:47:37.239Z,63.93
2017-07-28T10:48:49.878Z,63.74
2017-07-28T10:50:02.547Z,64.39
2017-07-28T10:51:15.151Z,64.39
2017-07-28T10:52:27.083Z,65.07
2017-07-28T10:53:39.362Z,66.63
2017-07-28T10:54:51.408Z,65.46
2017-07-28T10:56:03.668Z,66.83
2017-07-28T10:57:15.357Z,67.22
2017-07-28T10:58:27.941Z,67.6
2017-07-28T10:59:40.223Z,67.8
2017-07-28T11:00:52.524Z,67.32
2017-07-28T11:02:04.864Z,65.85
2017-07-28T11:03:16.876Z,66.99
2017-07-28T11:04:29.538Z,67.08
2017-07-28T11:05:42.167Z,66.76
2017-07-28T11:06:54.810Z,67.54
2017-07-28T11:08:07.133Z,69.06
2017-07-28T11:09:19.703Z,67.99
2017-07-28T11:10:32.355Z,69.81
2017-07-28T11:11:44.651Z,70.65
2017-07-28T11:12:57.285Z,70.16
2017-07-28T11:14:09.328Z,70.32
2017-07-28T11:15:21.579Z,71.13
2017-07-28T11:16:33.571Z,72.27
2017-07-28T11:17:46.157Z,70.12
2017-07-28T11:18:58.715Z,69.93
2017-07-28T11:20:11.590Z,71.48
2017-07-28T11:21:24.188Z,71.48
2017-07-28T11:22:36.203Z,71.48
2017-07-28T11:23:48.466Z,72.23
2017-07-28T11:25:00.724Z,73.78
2017-07-28T11:26:12.991Z,73.68
2017-07-28T11:27:25.240Z,72.71
2017-07-28T11:28:37.524Z,74.85
2017-07-28T11:29:50.105Z,70.48
2017-07-28T11:31:02.734Z,70.57
2017-07-28T11:32:15.346Z,69.6
2017-07-28T11:33:27.352Z,70.48
2017-07-28T11:34:39.659Z,72.03
2017-07-28T11:35:51.949Z,71.36
2017-07-28T11:37:04.181Z,70.48
2017-07-28T11:38:16.168Z,70.48
2017-07-28T11:39:28.414Z,71.64
2017-07-28T11:40:40.721Z,69.06
2017-07-28T11:41:53.613Z,67.7
2017-07-28T11:43:06.290Z,68.08
2017-07-28T11:44:18.366Z,68.96
2017-07-28T11:45:30.942Z,68.87
2017-07-28T11:46:43.583Z,68.67
2017-07-28T11:47:55.917Z,67.89
2017-07-28T11:49:08.470Z,67.99
2017-07-28T11:50:20.752Z,67.6
2017-07-28T11:51:33.031Z,66.63
2017-07-28T11:52:45.260Z,66.92
2017-07-28T11:53:57.595Z,67.02
2017-07-28T11:55:09.946Z,67.11
2017-07-28T11:56:22.602Z,66.92
2017-07-28T11:57:34.610Z,67.89
2017-07-28T11:58:47.240Z,68.28
2017-07-28T11:59:59.553Z,68.57
2017-07-28T12:01:11.829Z,68.18
2017-07-28T12:02:24.350Z,67.99
2017-07-28T12:03:36.642Z,69.25
2017-07-28T12:04:49.266Z,68.41
2017-07-28T12:06:01.834Z,67.83
2017-07-28T12:07:14.427Z,68.32
2017-07-28T12:08:27.052Z,66.6
2017-07-28T12:09:39.347Z,67.96
2017-07-28T12:10:51.615Z,67.67
2017-07-28T12:12:03.888Z,67.02
2017-07-28T12:13:16.586Z,67.7
2017-07-28T12:14:29.202Z,67.8
2017-07-28T12:15:41.835Z,66.73
2017-07-28T12:16:53.219Z,65.95
2017-07-28T12:18:05.519Z,66.34
2017-07-28T12:19:17.564Z,66.66
2017-07-28T12:20:29.907Z,66.44
2017-07-28T12:21:42.434Z,67.83
2017-07-28T12:22:55.016Z,67.7
2017-07-28T12:24:07.297Z,67.35
2017-07-28T12:25:19.574Z,67.83
2017-07-28T12:26:32.139Z,66.96
2017-07-28T12:27:44.801Z,64.23
2017-07-28T12:28:57.339Z,64.75
2017-07-28T12:30:08.748Z,66.27
2017-07-28T12:31:21.069Z,63.78
2017-07-28T12:32:33.365Z,64.45
2017-07-28T12:33:45.679Z,64.81
2017-07-28T12:34:58.261Z,65.88
2017-07-28T12:36:10.632Z,66.08
2017-07-28T12:37:22.903Z,66.08
2017-07-28T12:38:35.189Z,65.23
2017-07-28T12:39:47.759Z,64.07
2017-07-28T12:41:00.063Z,65.72
2017-07-28T12:42:12.436Z,63.35
2017-07-28T12:43:25.067Z,64.32
2017-07-28T12:44:37.367Z,64.32
2017-07-28T12:45:49.667Z,64.62
2017-07-28T12:47:02.291Z,63.62
2017-07-28T12:48:14.955Z,63.68
2017-07-28T12:49:27.574Z,64.95
2017-07-28T12:50:40.165Z,65.5
2017-07-28T12:51:52.512Z,65.37
2017-07-28T12:53:05.152Z,66.14
2017-07-28T12:54:17.435Z,66.3
2017-07-28T12:55:29.977Z,67.96
2017-07-28T12:56:42.238Z,68.83
2017-07-28T12:57:54.460Z,69.41
2017-07-28T12:59:07.111Z,68.51
2017-07-28T13:00:19.752Z,69.28
2017-07-28T13:01:32.342Z,70.51
2017-07-28T13:02:44.988Z,70.99
2017-07-28T13:03:57.537Z,71.19
2017-07-28T13:05:09.787Z,70.31
2017-07-28T13:06:22.132Z,71.12
2017-07-28T13:07:34.129Z,70.64
2017-07-28T13:08:46.730Z,69.6
2017-07-28T13:09:59.268Z,69.54
2017-07-28T13:11:11.336Z,69.48
2017-07-28T13:12:23.316Z,67.44
2017-07-28T13:13:35.329Z,66.89
2017-07-28T13:14:47.598Z,66.4
2017-07-28T13:16:00.262Z,66.63
2017-07-28T13:17:12.267Z,65.95
2017-07-28T13:18:24.538Z,64.78
2017-07-28T13:19:37.096Z,64.78
2017-07-28T13:20:49.669Z,64.78
2017-07-28T13:22:02.251Z,65.92
2017-07-28T13:23:14.300Z,66.4
2017-07-28T13:24:26.905Z,66.4
2017-07-28T13:25:39.520Z,66.6
2017-07-28T13:26:52.164Z,66.31
2017-07-28T13:28:04.840Z,64.95
2017-07-28T13:29:16.813Z,64.36
2017-07-28T13:30:29.473Z,63.62
2017-07-28T13:31:42.068Z,63.32
2017-07-28T13:32:54.363Z,62.09
2017-07-28T13:34:06.961Z,63.16
2017-07-28T13:35:19.580Z,64.13
2017-07-28T13:36:31.512Z,62.57
2017-07-28T13:37:44.121Z,62.7
2017-07-28T13:38:56.709Z,63.35
2017-07-28T13:40:08.952Z,62.96
2017-07-28T13:41:21.498Z,62.48
2017-07-28T13:42:33.836Z,62.84
2017-07-28T13:43:46.441Z,63.62
2017-07-28T13:44:59.064Z,63.23
2017-07-28T13:46:11.721Z,64.32
2017-07-28T13:47:23.711Z,62.67
2017-07-28T13:48:36.082Z,62.48
2017-07-28T13:49:48.647Z,63.16
2017-07-28T13:51:01.275Z,62.96
2017-07-28T13:52:13.371Z,64.23
2017-07-28T13:53:25.985Z,64.07
2017-07-28T13:54:38.569Z,63.19
2017-07-28T13:55:50.883Z,63.29
2017-07-28T13:57:02.916Z,63.42
2017-07-28T13:58:14.943Z,62.25
2017-07-28T13:59:26.964Z,62.66
2017-07-28T14:00:39.585Z,62.47
2017-07-28T14:01:51.894Z,60.75
2017-07-28T14:03:04.462Z,60.36
2017-07-28T14:04:16.730Z,60.58
2017-07-28T14:05:29.369Z,59.22
2017-07-28T14:06:41.927Z,59.12
2017-07-28T14:07:54.182Z,58.95
2017-07-28T14:09:06.525Z,57.68
2017-07-28T14:10:18.836Z,57.29
2017-07-28T14:11:31.140Z,57.2
2017-07-28T14:12:43.752Z,55.83
2017-07-28T14:13:56.055Z,56.51
2017-07-28T14:15:08.648Z,56.81
2017-07-28T14:16:21.307Z,57.39
2017-07-28T14:17:33.853Z,57.49
2017-07-28T14:18:46.439Z,58.07
2017-07-28T14:19:59.102Z,57.71
2017-07-28T14:21:11.716Z,57.81
2017-07-28T14:22:24.311Z,55.86
2017-07-28T14:23:36.292Z,56.15
2017-07-28T14:24:48.852Z,56.25
2017-07-28T14:26:00.868Z,56.22
2017-07-28T14:27:13.196Z,57.26
2017-07-28T14:28:25.836Z,57.82
2017-07-28T14:29:38.436Z,58.6
2017-07-28T14:30:51.007Z,58.5
2017-07-28T14:32:03.291Z,58.7
2017-07-28T14:33:15.912Z,58.18
2017-07-28T14:34:28.527Z,58.87
2017-07-28T14:35:41.167Z,59.23
2017-07-28T14:36:53.756Z,59.81
2017-07-28T14:38:06.120Z,59.78
2017-07-28T14:39:18.416Z,60.75
2017-07-28T14:40:30.633Z,61.51
2017-07-28T14:41:42.932Z,61.6
2017-07-28T14:42:55.606Z,62.19
2017-07-28T14:44:08.258Z,62.96
2017-07-28T14:45:20.865Z,63.03
2017-07-28T14:46:33.521Z,61.28
2017-07-28T14:47:45.807Z,61.18
2017-07-28T14:48:58.105Z,60.5
2017-07-28T14:50:10.418Z,61.47
2017-07-28T14:51:23.006Z,61.96
2017-07-28T14:52:35.605Z,61.38
2017-07-28T14:53:48.243Z,60.79
2017-07-28T14:55:00.895Z,61.54
2017-07-28T14:56:13.540Z,62.41
2017-07-28T14:57:26.153Z,62.87
2017-07-28T14:58:38.522Z,63.45
2017-07-28T14:59:50.805Z,63.36
2017-07-28T15:01:03.064Z,63.23
2017-07-28T15:02:15.670Z,63.42
2017-07-28T15:03:28.330Z,65.33
2017-07-28T15:04:40.939Z,64.43
2017-07-28T15:05:53.522Z,64.62
2017-07-28T15:07:05.872Z,64.43
2017-07-28T15:08:17.303Z,65.08
2017-07-28T15:09:29.937Z,65.17
2017-07-28T15:10:42.559Z,65.27
2017-07-28T15:11:55.156Z,65.14
2017-07-28T15:13:07.786Z,65.59
2017-07-28T15:14:20.066Z,65.79
2017-07-28T15:15:32.709Z,65.89
2017-07-28T15:16:45.253Z,66.34
2017-07-28T15:17:57.823Z,66.43
2017-07-28T15:19:10.054Z,66.34
2017-07-28T15:20:22.071Z,66.63
2017-07-28T15:21:33.986Z,67.27
2017-07-28T15:22:46.541Z,67.85
2017-07-28T15:23:59.136Z,67.85
2017-07-28T15:25:10.841Z,68.69
2017-07-28T15:26:23.377Z,68.59
2017-07-28T15:27:35.691Z,69.85
2017-07-28T15:28:48.244Z,69.75
2017-07-28T15:30:00.764Z,69.56
2017-07-28T15:31:12.748Z,69.17
2017-07-28T15:32:25.386Z,69.17
2017-07-28T15:33:37.995Z,70.2
2017-07-28T15:34:50.235Z,71.08